createdAt,value
2022-10-23T00:01:30.705Z,1.67
2022-10-23T00:04:00.476Z,2.25
2022-10-23T00:06:28.770Z,1.60
2022-10-23T00:08:56.330Z,1.40
2022-10-23T00:11:26.894Z,1.60
2022-10-23T00:13:55.719Z,1.60
2022-10-23T00:16:22.744Z,1.75
2022-10-23T00:18:49.375Z,1.90
2022-10-23T00:21:17.484Z,2.10
2022-10-23T00:23:45.467Z,1.60
2022-10-23T00:26:16.251Z,1.90
2022-10-23T00:28:49.476Z,1.70
2022-10-23T00:31:16.224Z,2.15
2022-10-23T00:33:43.096Z,1.55
2022-10-23T00:36:12.899Z,1.48
2022-10-23T00:38:40.208Z,1.80
2022-10-23T00:41:08.630Z,1.92
2022-10-23T00:43:54.123Z,1.50
2022-10-23T00:46:20.695Z,1.58
2022-10-23T00:48:47.205Z,2.03
2022-10-23T00:51:13.725Z,1.92
2022-10-23T00:53:40.261Z,1.60
2022-10-23T00:56:06.988Z,1.45
2022-10-23T00:58:33.498Z,2.45
2022-10-23T01:01:00.018Z,1.88
2022-10-23T01:03:29.021Z,1.88
2022-10-23T01:06:16.578Z,2.85
2022-10-23T01:08:52.442Z,2.67
2022-10-23T01:11:26.395Z,2.50
2022-10-23T01:14:08.071Z,2.80
2022-10-23T01:16:41.806Z,2.17
2022-10-23T01:19:21.771Z,1.80
2022-10-23T01:22:07.377Z,2.45
2022-10-23T01:24:48.859Z,1.63
2022-10-23T01:27:24.270Z,2.40
2022-10-23T01:30:03.303Z,2.72
2022-10-23T01:32:51.029Z,2.22
2022-10-23T01:35:22.733Z,2.63
2022-10-23T01:37:58.112Z,2.70
2022-10-23T01:40:36.543Z,2.38
2022-10-23T01:43:13.332Z,2.70
2022-10-23T01:45:48.971Z,2.63
2022-10-23T01:48:19.114Z,3.03
2022-10-23T01:50:47.029Z,2.83
2022-10-23T01:53:13.617Z,2.72
2022-10-23T01:58:16.091Z,2.95
2022-10-23T02:00:45.564Z,2.70
2022-10-23T02:03:15.278Z,2.17
2022-10-23T02:05:43.618Z,2.20
2022-10-23T02:08:10.575Z,2.58
2022-10-23T02:11:01.911Z,2.33
2022-10-23T02:13:53.921Z,2.60
2022-10-23T02:16:31.999Z,2.90
2022-10-23T02:19:17.765Z,3.20
2022-10-23T02:22:02.109Z,2.42
2022-10-23T02:24:36.433Z,2.60
2022-10-23T02:27:08.062Z,2.90
2022-10-23T02:29:40.000Z,2.67
2022-10-23T02:32:10.163Z,2.67
2022-10-23T02:34:36.717Z,2.80
2022-10-23T02:37:03.695Z,3.08
2022-10-23T02:39:30.417Z,2.90
2022-10-23T02:42:22.018Z,2.30
2022-10-23T02:44:59.829Z,2.22
2022-10-23T02:47:55.281Z,3.03
2022-10-23T02:50:26.794Z,3.00
2022-10-23T02:52:59.001Z,3.08
2022-10-23T02:55:36.695Z,2.35
2022-10-23T02:58:09.230Z,2.47
2022-10-23T03:00:39.354Z,2.80
2022-10-23T03:03:14.944Z,3.50
2022-10-23T03:05:42.115Z,2.83
2022-10-23T03:08:10.246Z,2.85
2022-10-23T03:10:37.303Z,2.00
2022-10-23T03:13:04.155Z,2.78
2022-10-23T03:15:30.852Z,2.50
2022-10-23T03:17:57.382Z,2.83
2022-10-23T03:20:24.256Z,3.08
2022-10-23T03:22:50.771Z,2.70
2022-10-23T03:25:17.403Z,2.95
2022-10-23T03:27:43.966Z,2.67
2022-10-23T03:30:10.994Z,2.63
2022-10-23T03:32:37.541Z,3.03
2022-10-23T03:35:04.539Z,2.63
2022-10-23T03:37:31.057Z,2.65
2022-10-23T03:39:57.606Z,3.00
2022-10-23T03:42:24.131Z,3.08
2022-10-23T03:44:50.681Z,2.45
2022-10-23T03:47:17.332Z,2.50
2022-10-23T03:49:43.848Z,2.45
2022-10-23T03:52:10.491Z,3.22
2022-10-23T03:54:37.002Z,2.97
2022-10-23T03:57:03.624Z,2.15
2022-10-23T03:59:30.234Z,3.20
2022-10-23T04:01:56.967Z,2.15
2022-10-23T04:04:23.603Z,2.35
2022-10-23T04:06:50.133Z,2.45
2022-10-23T04:09:16.923Z,2.05
2022-10-23T04:11:43.490Z,2.72
2022-10-23T04:14:13.317Z,2.45
2022-10-23T04:16:40.524Z,2.55
2022-10-23T04:19:07.098Z,2.70
2022-10-23T04:21:33.802Z,2.97
2022-10-23T04:24:00.327Z,2.72
2022-10-23T04:26:26.845Z,3.00
2022-10-23T04:28:53.367Z,2.58
2022-10-23T04:31:20.042Z,2.47
2022-10-23T04:33:47.402Z,2.58
2022-10-23T04:36:14.013Z,3.00
2022-10-23T04:38:40.610Z,2.72
2022-10-23T04:41:07.189Z,2.50
2022-10-23T04:43:33.824Z,2.78
2022-10-23T04:46:00.704Z,2.13
2022-10-23T04:48:29.129Z,2.20
2022-10-23T04:53:27.414Z,1.98
2022-10-23T04:55:55.984Z,1.85
2022-10-23T04:58:24.035Z,1.95
2022-10-23T05:00:51.416Z,1.95
2022-10-23T05:03:18.902Z,1.92
2022-10-23T05:05:45.871Z,2.20
2022-10-23T05:08:15.636Z,2.30
2022-10-23T05:10:44.614Z,1.90
2022-10-23T05:13:11.102Z,1.83
2022-10-23T05:15:37.714Z,1.75
2022-10-23T05:18:16.221Z,1.73
2022-10-23T05:20:45.256Z,1.70
2022-10-23T05:23:15.019Z,1.65
2022-10-23T05:25:41.573Z,1.70
2022-10-23T05:28:08.087Z,2.20
2022-10-23T05:30:34.849Z,2.40
2022-10-23T05:33:03.046Z,1.60
2022-10-23T05:35:30.244Z,1.85
2022-10-23T05:37:58.932Z,1.90
2022-10-23T05:42:52.435Z,2.28
2022-10-23T05:45:19.054Z,1.67
2022-10-23T05:47:46.668Z,2.25
2022-10-23T05:50:13.341Z,2.10
2022-10-23T05:52:40.372Z,2.15
2022-10-23T05:55:08.898Z,2.35
2022-10-23T05:57:35.455Z,2.40
2022-10-23T06:00:02.391Z,2.75
2022-10-23T06:02:29.127Z,2.28
2022-10-23T06:04:55.814Z,2.78
2022-10-23T06:07:29.175Z,2.40
2022-10-23T06:09:57.815Z,3.33
2022-10-23T06:12:24.498Z,3.05
2022-10-23T06:14:51.960Z,2.60
2022-10-23T06:17:18.698Z,2.58
2022-10-23T06:19:46.190Z,2.08
2022-10-23T06:22:12.792Z,2.38
2022-10-23T06:24:39.340Z,2.33
2022-10-23T06:27:06.041Z,2.22
2022-10-23T06:29:32.669Z,1.95
2022-10-23T06:31:59.171Z,2.00
2022-10-23T06:34:25.738Z,2.17
2022-10-23T06:36:52.484Z,2.05
2022-10-23T06:39:20.904Z,2.05
2022-10-23T06:41:47.462Z,2.10
2022-10-23T06:44:14.116Z,2.03
2022-10-23T06:46:40.769Z,2.58
2022-10-23T06:49:07.288Z,2.13
2022-10-23T06:51:33.897Z,2.42
2022-10-23T06:54:00.463Z,2.83
2022-10-23T06:56:29.240Z,2.30
2022-10-23T06:58:56.592Z,2.38
2022-10-23T07:01:23.300Z,2.50
2022-10-23T07:03:49.918Z,2.20
2022-10-23T07:06:16.430Z,2.28
2022-10-23T07:08:43.160Z,2.60
2022-10-23T07:11:11.357Z,2.30
2022-10-23T07:13:39.351Z,2.13
2022-10-23T07:16:15.017Z,2.55
2022-10-23T07:18:41.882Z,2.40
2022-10-23T07:21:08.788Z,2.13
2022-10-23T07:23:35.641Z,2.55
2022-10-23T07:26:05.239Z,3.08
2022-10-23T07:28:31.881Z,2.67
2022-10-23T07:30:59.545Z,2.97
2022-10-23T07:33:26.181Z,2.70
2022-10-23T07:35:53.118Z,2.83
2022-10-23T07:38:19.739Z,2.55
2022-10-23T07:40:46.395Z,2.20
2022-10-23T07:43:12.948Z,2.55
2022-10-23T07:45:39.670Z,2.70
2022-10-23T07:48:06.273Z,3.53
2022-10-23T07:50:32.807Z,3.03
2022-10-23T07:52:59.311Z,2.88
2022-10-23T07:55:25.910Z,2.60
2022-10-23T07:57:52.425Z,2.25
2022-10-23T08:00:19.107Z,2.17
2022-10-23T08:02:45.750Z,2.15
2022-10-23T08:05:12.294Z,2.90
2022-10-23T08:07:38.934Z,3.15
2022-10-23T08:10:06.140Z,2.53
2022-10-23T08:12:32.627Z,2.23
2022-10-23T08:14:59.231Z,3.42
2022-10-23T08:17:28.193Z,3.20
2022-10-23T08:19:55.001Z,2.90
2022-10-23T08:22:21.600Z,3.00
2022-10-23T08:24:48.106Z,2.78
2022-10-23T08:27:14.634Z,2.75
2022-10-23T08:29:41.207Z,2.83
2022-10-23T08:32:07.812Z,3.28
2022-10-23T08:34:34.408Z,3.25
2022-10-23T08:37:00.952Z,2.97
2022-10-23T08:39:27.459Z,2.85
2022-10-23T08:41:54.605Z,2.53
2022-10-23T08:44:47.314Z,2.50
2022-10-23T08:47:19.891Z,2.75
2022-10-23T08:49:56.684Z,2.88
2022-10-23T08:52:29.832Z,2.75
2022-10-23T08:55:22.059Z,2.42
2022-10-23T08:58:17.253Z,2.70
2022-10-23T09:00:45.134Z,3.05
2022-10-23T09:03:13.421Z,2.70
2022-10-23T09:06:01.864Z,2.30
2022-10-23T09:08:51.387Z,2.40
2022-10-23T09:11:26.530Z,2.10
2022-10-23T09:13:59.100Z,3.70
2022-10-23T09:16:49.856Z,2.30
2022-10-23T09:19:19.794Z,1.90
2022-10-23T09:21:49.937Z,2.00
2022-10-23T09:24:19.480Z,1.73
2022-10-23T09:26:49.594Z,2.55
2022-10-23T09:29:30.180Z,2.58
2022-10-23T09:31:59.060Z,2.05
2022-10-23T09:34:30.152Z,1.85
2022-10-23T09:36:59.891Z,2.08
2022-10-23T09:39:34.631Z,1.90
2022-10-23T09:42:04.988Z,2.58
2022-10-23T09:44:33.585Z,2.63
2022-10-23T09:47:12.036Z,2.17
2022-10-23T09:49:46.352Z,2.60
2022-10-23T09:52:12.999Z,2.22
2022-10-23T09:54:45.515Z,2.53
2022-10-23T09:57:18.007Z,2.22
2022-10-23T09:59:44.841Z,2.47
2022-10-23T10:02:28.611Z,2.60
2022-10-23T10:04:55.182Z,4.32
2022-10-23T10:07:24.518Z,2.67
2022-10-23T10:09:53.307Z,2.58
2022-10-23T10:12:39.403Z,2.53
2022-10-23T10:15:21.929Z,2.70
2022-10-23T10:18:07.279Z,2.42
2022-10-23T10:21:04.675Z,2.70
2022-10-23T10:23:45.810Z,2.95
2022-10-23T10:26:31.282Z,3.45
2022-10-23T10:29:13.068Z,2.80
2022-10-23T10:32:03.609Z,2.80
2022-10-23T10:34:39.141Z,3.22
2022-10-23T10:37:29.446Z,2.53
2022-10-23T10:40:10.024Z,2.70
2022-10-23T10:43:01.586Z,2.53
2022-10-23T10:45:41.754Z,2.83
2022-10-23T10:48:37.354Z,2.55
2022-10-23T10:51:11.289Z,3.00
2022-10-23T10:54:22.452Z,2.80
2022-10-23T10:56:49.130Z,3.00
2022-10-23T10:59:31.979Z,2.50
2022-10-23T11:02:25.261Z,3.50
2022-10-23T11:07:29.481Z,3.45
2022-10-23T11:09:58.973Z,3.22
2022-10-23T11:12:27.994Z,3.33
2022-10-23T11:14:57.419Z,3.40
2022-10-23T11:17:28.904Z,3.03
2022-10-23T11:20:05.438Z,3.35
2022-10-23T11:22:51.439Z,3.30
2022-10-23T11:25:47.119Z,3.90
2022-10-23T11:28:25.957Z,3.90
2022-10-23T11:31:06.151Z,3.47
2022-10-23T11:34:03.201Z,3.38
2022-10-23T11:36:56.505Z,3.60
2022-10-23T11:39:36.921Z,3.65
2022-10-23T11:42:06.241Z,3.65
2022-10-23T11:45:25.374Z,3.67
2022-10-23T11:48:02.982Z,3.80
2022-10-23T11:50:44.841Z,3.63
2022-10-23T11:53:33.183Z,3.20
2022-10-23T11:56:11.933Z,3.92
2022-10-23T11:58:47.606Z,3.75
2022-10-23T12:01:24.300Z,3.80
2022-10-23T12:04:12.635Z,3.13
2022-10-23T12:06:51.231Z,3.05
2022-10-23T12:09:54.353Z,4.13
2022-10-23T12:12:40.619Z,3.58
2022-10-23T12:15:16.295Z,3.88
2022-10-23T12:17:44.238Z,4.30
2022-10-23T12:20:11.180Z,4.10
2022-10-23T12:23:00.782Z,4.65
2022-10-23T12:25:46.313Z,3.83
2022-10-23T12:28:58.328Z,3.90
2022-10-23T12:32:04.175Z,3.22
2022-10-23T12:34:42.196Z,3.67
2022-10-23T12:37:08.702Z,3.75
2022-10-23T12:39:39.067Z,3.58
2022-10-23T12:42:27.116Z,3.58
2022-10-23T12:47:32.824Z,3.67
2022-10-23T12:49:59.383Z,3.42
2022-10-23T12:52:26.015Z,4.00
2022-10-23T12:54:52.613Z,4.38
2022-10-23T12:57:30.271Z,3.65
2022-10-23T13:00:06.134Z,3.47
2022-10-23T13:02:36.256Z,3.58
2022-10-23T13:05:07.527Z,4.18
2022-10-23T13:07:37.872Z,4.13
2022-10-23T13:10:05.599Z,3.78
2022-10-23T13:12:38.641Z,4.22
2022-10-23T13:15:08.503Z,3.55
2022-10-23T13:17:36.533Z,4.78
2022-10-23T13:20:31.257Z,4.22
2022-10-23T13:23:08.046Z,4.05
2022-10-23T13:25:37.062Z,4.28
2022-10-23T13:28:25.438Z,4.15
2022-10-23T13:31:05.261Z,3.80
2022-10-23T13:33:38.059Z,4.60
2022-10-23T13:36:13.844Z,4.40
2022-10-23T13:39:02.361Z,4.30
2022-10-23T13:41:36.360Z,4.82
2022-10-23T13:44:03.068Z,4.53
2022-10-23T13:46:29.828Z,3.88
2022-10-23T13:48:56.421Z,4.50
2022-10-23T13:51:29.251Z,3.83
2022-10-23T13:53:57.353Z,5.05
2022-10-23T13:56:26.303Z,4.25
2022-10-23T13:58:53.569Z,4.18
2022-10-23T14:01:33.476Z,4.60
2022-10-23T14:04:00.279Z,3.63
2022-10-23T14:06:26.831Z,4.20
2022-10-23T14:08:53.321Z,4.68
2022-10-23T14:11:21.058Z,4.85
2022-10-23T14:13:48.623Z,4.47
2022-10-23T14:16:18.085Z,4.13
2022-10-23T14:18:44.913Z,3.97
2022-10-23T14:21:13.541Z,3.28
2022-10-23T14:23:40.365Z,4.18
2022-10-23T14:26:13.332Z,4.60
2022-10-23T14:28:39.992Z,4.80
2022-10-23T14:31:11.824Z,4.75
2022-10-23T14:33:39.077Z,4.30
2022-10-23T14:36:06.156Z,4.13
2022-10-23T14:38:32.748Z,3.83
2022-10-23T14:40:59.719Z,4.63
2022-10-23T14:43:27.034Z,4.30
2022-10-23T14:45:53.724Z,4.00
2022-10-23T14:48:20.216Z,4.72
2022-10-23T14:50:49.334Z,4.55
2022-10-23T14:53:16.260Z,3.97
2022-10-23T14:55:42.782Z,3.40
2022-10-23T14:58:09.377Z,4.38
2022-10-23T15:00:36.228Z,4.03
2022-10-23T15:03:02.836Z,4.95
2022-10-23T15:05:29.398Z,4.00
2022-10-23T15:07:56.767Z,4.28
2022-10-23T15:10:23.286Z,5.28
2022-10-23T15:12:49.975Z,5.63
2022-10-23T15:15:16.696Z,4.57
2022-10-23T15:17:43.802Z,4.50
2022-10-23T15:20:10.766Z,5.18
2022-10-23T15:22:37.286Z,4.22
2022-10-23T15:25:04.106Z,4.28
2022-10-23T15:27:30.584Z,4.65
2022-10-23T15:29:57.143Z,4.50
2022-10-23T15:32:23.782Z,4.70
2022-10-23T15:34:52.099Z,4.88
2022-10-23T15:37:18.636Z,4.30
2022-10-23T15:39:45.253Z,3.75
2022-10-23T15:42:11.844Z,4.47
2022-10-23T15:44:40.265Z,3.60
2022-10-23T15:49:33.541Z,4.13
2022-10-23T15:52:00.475Z,4.82
2022-10-23T15:54:30.462Z,4.55
2022-10-23T15:56:59.399Z,4.15
2022-10-23T15:59:26.620Z,4.03
2022-10-23T16:01:53.263Z,4.72
2022-10-23T16:04:20.032Z,3.78
2022-10-23T16:06:46.796Z,4.45
2022-10-23T16:09:14.230Z,4.03
2022-10-23T16:11:42.527Z,4.28
2022-10-23T16:14:14.178Z,4.32
2022-10-23T16:16:41.144Z,3.78
2022-10-23T16:19:07.882Z,4.40
2022-10-23T16:21:36.281Z,5.05
2022-10-23T16:26:31.821Z,3.80
2022-10-23T16:29:01.705Z,4.28
2022-10-23T16:31:29.837Z,4.95
2022-10-23T16:34:01.435Z,4.78
2022-10-23T16:36:28.630Z,4.57
2022-10-23T16:38:55.735Z,4.78
2022-10-23T16:41:22.362Z,4.93
2022-10-23T16:43:48.954Z,4.80
2022-10-23T16:46:21.067Z,4.88
2022-10-23T16:48:49.036Z,8.43
2022-10-23T16:51:21.829Z,6.55
2022-10-23T16:53:48.862Z,6.30
2022-10-23T16:56:18.649Z,6.30
2022-10-23T16:58:45.741Z,9.93
2022-10-23T17:01:21.000Z,6.80
2022-10-23T17:03:49.653Z,11.65
2022-10-23T17:08:45.597Z,6.38
2022-10-23T17:11:17.784Z,8.40
2022-10-23T17:13:58.497Z,7.88
2022-10-23T17:16:35.076Z,8.18
2022-10-23T17:19:02.223Z,8.65
2022-10-23T17:21:33.681Z,7.90
2022-10-23T17:24:00.356Z,7.22
2022-10-23T17:26:27.744Z,6.25
2022-10-23T17:28:55.094Z,6.78
2022-10-23T17:31:24.664Z,6.05
2022-10-23T17:33:54.349Z,5.80
2022-10-23T17:36:21.878Z,6.78
2022-10-23T17:38:48.737Z,6.00
2022-10-23T17:41:18.341Z,7.18
2022-10-23T17:43:45.099Z,5.60
2022-10-23T17:46:13.434Z,6.10
2022-10-23T17:48:43.372Z,6.45
2022-10-23T17:51:18.773Z,6.85
2022-10-23T17:53:47.628Z,6.85
2022-10-23T17:56:19.859Z,6.25
2022-10-23T17:58:46.799Z,6.35
2022-10-23T18:01:16.279Z,5.57
2022-10-23T18:03:43.360Z,6.50
2022-10-23T18:06:16.141Z,6.20
2022-10-23T18:08:43.915Z,6.85
2022-10-23T18:11:20.703Z,6.77
2022-10-23T18:13:47.882Z,6.50
2022-10-23T18:16:15.006Z,6.05
2022-10-23T18:18:43.272Z,6.45
2022-10-23T18:21:10.456Z,6.35
2022-10-23T18:23:37.642Z,6.43
2022-10-23T18:26:05.334Z,6.30
2022-10-23T18:28:32.559Z,6.40
2022-10-23T18:30:59.103Z,6.28
2022-10-23T18:33:26.509Z,6.38
2022-10-23T18:35:53.691Z,7.10
2022-10-23T18:38:20.225Z,7.47
2022-10-23T18:40:54.556Z,8.07
2022-10-23T18:43:42.037Z,9.00
2022-10-23T18:46:07.865Z,8.05
2022-10-23T18:48:35.348Z,6.18
2022-10-23T18:51:01.926Z,7.50
2022-10-23T18:53:29.058Z,6.43
2022-10-23T18:55:55.962Z,7.00
2022-10-23T18:58:22.747Z,6.78
2022-10-23T19:00:49.771Z,7.53
2022-10-23T19:03:16.517Z,6.97
2022-10-23T19:05:47.020Z,7.13
2022-10-23T19:08:13.829Z,7.22
2022-10-23T19:10:43.968Z,6.60
2022-10-23T19:13:10.541Z,8.15
2022-10-23T19:15:37.868Z,7.03
2022-10-23T19:18:08.185Z,7.65
2022-10-23T19:20:35.521Z,6.82
2022-10-23T19:23:04.818Z,7.72
2022-10-23T19:25:34.459Z,7.18
2022-10-23T19:28:03.213Z,6.95
2022-10-23T19:30:30.202Z,6.53
2022-10-23T19:32:56.738Z,7.25
2022-10-23T19:35:23.344Z,7.25
2022-10-23T19:37:49.923Z,7.13
2022-10-23T19:40:16.731Z,8.00
2022-10-23T19:42:44.376Z,6.43
2022-10-23T19:45:16.244Z,6.07
2022-10-23T19:47:43.504Z,6.40
2022-10-23T19:50:11.574Z,6.68
2022-10-23T19:52:38.488Z,6.35
2022-10-23T19:55:06.390Z,6.50
2022-10-23T19:57:37.374Z,6.23
2022-10-23T20:00:06.951Z,7.22
2022-10-23T20:05:08.713Z,6.75
2022-10-23T20:07:37.116Z,6.28
2022-10-23T20:10:08.351Z,6.50
2022-10-23T20:12:34.934Z,6.07
2022-10-23T20:15:01.521Z,6.32
2022-10-23T20:17:28.341Z,7.35
2022-10-23T20:19:54.974Z,6.65
2022-10-23T20:22:21.593Z,7.85
2022-10-23T20:24:48.317Z,6.82
2022-10-23T20:27:15.537Z,6.65
2022-10-23T20:29:42.738Z,6.22
2022-10-23T20:32:09.740Z,5.40
2022-10-23T20:34:36.384Z,6.55
2022-10-23T20:37:02.959Z,5.55
2022-10-23T20:39:29.986Z,6.05
2022-10-23T20:41:56.990Z,6.10
2022-10-23T20:44:24.930Z,5.60
2022-10-23T20:46:52.900Z,5.75
2022-10-23T20:49:20.018Z,5.22
2022-10-23T20:51:55.212Z,6.70
2022-10-23T20:54:28.880Z,5.68
2022-10-23T20:56:57.143Z,6.03
2022-10-23T20:59:23.798Z,5.07
2022-10-23T21:01:53.272Z,6.07
2022-10-23T21:04:22.882Z,5.47
2022-10-23T21:07:10.868Z,6.05
2022-10-23T21:09:38.975Z,5.55
2022-10-23T21:12:06.852Z,5.97
2022-10-23T21:14:33.908Z,6.05
2022-10-23T21:17:00.602Z,5.50
2022-10-23T21:19:27.204Z,5.85
2022-10-23T21:21:54.927Z,5.95
2022-10-23T21:24:21.631Z,6.22
2022-10-23T21:26:48.434Z,5.10
2022-10-23T21:29:19.721Z,6.43
2022-10-23T21:32:01.678Z,6.38
2022-10-23T21:34:29.216Z,6.10
2022-10-23T21:39:46.493Z,6.63
2022-10-23T21:42:14.161Z,5.13
2022-10-23T21:44:41.309Z,5.80
2022-10-23T21:47:07.864Z,6.50
2022-10-23T21:49:34.508Z,5.95
2022-10-23T21:52:01.426Z,6.43
2022-10-23T21:54:27.959Z,6.65
2022-10-23T21:56:55.010Z,6.55
2022-10-23T21:59:27.744Z,6.18
2022-10-23T22:01:57.059Z,6.55
2022-10-23T22:04:23.703Z,5.80
2022-10-23T22:06:50.297Z,6.15
2022-10-23T22:09:19.648Z,6.22
2022-10-23T22:11:47.977Z,6.32
2022-10-23T22:14:14.569Z,5.75
2022-10-23T22:16:42.332Z,6.70
2022-10-23T22:19:12.182Z,5.53
2022-10-23T22:21:39.154Z,6.05
2022-10-23T22:24:06.817Z,6.57
2022-10-23T22:26:39.684Z,6.55
2022-10-23T22:29:16.072Z,6.20
2022-10-23T22:31:45.678Z,6.07
2022-10-23T22:34:40.812Z,6.03
2022-10-23T22:37:10.751Z,6.38
2022-10-23T22:39:38.050Z,6.40
2022-10-23T22:42:04.814Z,5.78
2022-10-23T22:44:31.326Z,5.95
2022-10-23T22:46:59.079Z,6.22
2022-10-23T22:49:25.629Z,6.07
2022-10-23T22:51:52.280Z,6.30
2022-10-23T22:54:19.021Z,6.85
2022-10-23T22:56:45.536Z,6.05
2022-10-23T22:59:12.089Z,6.53
2022-10-23T23:01:42.679Z,5.40
2022-10-23T23:04:19.777Z,5.93
2022-10-23T23:06:57.618Z,6.00
2022-10-23T23:09:24.152Z,5.97
2022-10-23T23:11:52.595Z,6.95
2022-10-23T23:16:51.191Z,5.97
2022-10-23T23:19:18.018Z,6.28
2022-10-23T23:21:44.605Z,6.03
2022-10-23T23:24:11.872Z,6.22
2022-10-23T23:26:38.579Z,6.13
2022-10-23T23:29:05.133Z,6.82
2022-10-23T23:31:31.662Z,7.97
2022-10-23T23:33:59.277Z,6.57
2022-10-23T23:36:27.646Z,6.05
2022-10-23T23:38:56.614Z,6.22
2022-10-23T23:41:23.895Z,6.10
2022-10-23T23:43:50.681Z,6.28
2022-10-23T23:46:18.023Z,6.38
2022-10-23T23:48:48.298Z,7.22
2022-10-23T23:51:20.338Z,7.72
2022-10-23T23:53:48.092Z,5.00
2022-10-23T23:56:14.995Z,6.95
2022-10-23T23:58:41.832Z,7.10
